Time;durP1;ratioP1;P1;durP2;ratioP2;P2;SDS_P1;SDS_P2;PMS_P1;PMS_P2;Temp;Humidity;BMP_temperature;BMP_pressure;BME280_temperature;BME280_humidity;BME280_pressure;Samples;Min_cycle;Max_cycle;Signal;HPM_P1;HPM_P2
2022/06/03 00:01:00;;;;;;;;;4.50;3.00;;;;;19.92;39.94;101264.22;5037092;28;45481;-67
2022/06/03 00:04:06;;;;;;;;;4.33;4.33;;;;;19.90;39.80;101260.78;5036905;28;45361;-67
2022/06/03 00:07:05;;;;;;;;;3.67;3.67;;;;;19.80;39.89;101257.50;5036849;28;45271;-67
2022/06/03 00:09:39;;;;;;;;;5.00;3.33;;;;;19.81;39.68;101259.22;5037959;28;45409;-68
2022/06/03 00:12:07;;;;;;;;;3.33;3.00;;;;;19.82;38.84;101267.28;5041812;28;45238;-68
2022/06/03 00:14:42;;;;;;;;;4.00;4.00;;;;;19.86;38.84;101270.53;5039519;28;45466;-67
2022/06/03 00:17:26;;;;;;;;;4.00;4.00;;;;;19.80;39.85;101269.38;5042365;28;45496;-67
2022/06/03 00:20:21;;;;;;;;;3.00;3.00;;;;;19.76;39.35;101264.47;5052897;28;47085;-67
2022/06/03 00:23:24;;;;;;;;;3.67;3.67;;;;;19.78;38.59;101251.34;5041855;28;45494;-68
2022/06/03 00:25:55;;;;;;;;;5.00;4.00;;;;;19.75;39.35;101251.72;5042383;28;45242;-67
2022/06/03 00:28:29;;;;;;;;;4.67;4.67;;;;;19.76;39.36;101257.06;5043778;28;45646;-68
2022/06/03 00:31:09;;;;;;;;;5.67;5.67;;;;;19.74;39.32;101245.34;5039585;28;46963;-68
2022/06/03 00:34:06;;;;;;;;;3.33;3.33;;;;;19.73;39.25;101249.16;5041920;28;45322;-67
2022/06/03 00:36:57;;;;;;;;;2.33;2.33;;;;;19.75;38.93;101251.72;5043605;28;45426;-67
2022/06/03 00:39:44;;;;;;;;;4.00;4.00;;;;;19.73;39.23;101245.53;5038632;28;45324;-68
2022/06/03 00:42:28;;;;;;;;;4.33;4.33;;;;;19.69;39.20;101250.63;5044172;28;45942;-67
2022/06/03 00:45:34;;;;;;;;;6.00;5.00;;;;;19.63;38.96;101245.03;5038369;28;45371;-68
2022/06/03 00:48:05;;;;;;;;;2.00;2.00;;;;;19.57;39.16;101245.81;5031785;28;45608;-68
2022/06/03 00:50:53;;;;;;;;;2.00;2.00;;;;;19.55;39.85;101247.91;5042902;28;45330;-68
2022/06/03 00:53:49;;;;;;;;;5.67;4.00;;;;;19.47;40.01;101261.81;5033795;28;47674;-67
2022/06/03 00:56:44;;;;;;;;;4.67;4.67;;;;;19.44;40.09;101261.09;5043630;28;45331;-67
2022/06/03 00:59:47;;;;;;;;;4.67;4.67;;;;;19.42;39.80;101256.84;5051063;28;45276;-68
2022/06/03 01:02:50;;;;;;;;;6.00;4.00;;;;;19.30;40.01;101256.47;5042523;28;45336;-68
2022/06/03 01:05:44;;;;;;;;;4.67;4.00;;;;;19.26;40.72;101255.16;5037639;28;45341;-68
2022/06/03 01:08:24;;;;;;;;;3.00;3.00;;;;;19.26;40.54;101259.81;5032516;28;45476;-68
2022/06/03 01:11:11;;;;;;;;;3.33;3.33;;;;;19.20;41.00;101257.84;5041198;28;45567;-68
2022/06/03 01:14:06;;;;;;;;;4.00;4.00;;;;;19.21;40.40;101263.16;5042476;28;45407;-67
2022/06/03 01:17:05;;;;;;;;;3.00;3.00;;;;;19.19;40.34;101259.75;5038062;28;46496;-67
2022/06/03 01:19:55;;;;;;;;;5.00;4.67;;;;;19.12;41.16;101250.53;5037414;28;45525;-69
2022/06/03 01:22:38;;;;;;;;;3.33;3.33;;;;;19.02;41.19;101249.97;5060004;28;45517;-68
2022/06/03 01:25:21;;;;;;;;;5.00;5.00;;;;;19.00;41.02;101260.31;5042480;28;45405;-67
2022/06/03 01:28:34;;;;;;;;;3.00;3.00;;;;;18.94;40.69;101236.28;5044549;28;45530;-67
2022/06/03 01:31:18;;;;;;;;;4.67;4.67;;;;;19.01;41.74;101243.59;5040072;28;45429;-67
2022/06/03 01:33:54;;;;;;;;;4.00;4.00;;;;;18.94;41.50;101255.56;5040119;28;45550;-69
2022/06/03 01:37:04;;;;;;;;;4.00;4.00;;;;;18.90;41.73;101243.25;5043289;28;46188;-69
2022/06/03 01:39:41;;;;;;;;;4.00;4.00;;;;;18.85;41.74;101245.72;5041792;28;45519;-67
2022/06/03 01:42:44;;;;;;;;;2.67;2.67;;;;;18.86;41.45;101239.16;5044253;28;45445;-67
2022/06/03 01:45:42;;;;;;;;;4.33;4.33;;;;;18.88;41.76;101242.56;5062510;28;46267;-67
2022/06/03 01:48:22;;;;;;;;;4.00;4.00;;;;;18.76;41.05;101220.19;5042700;28;45422;-68
2022/06/03 01:50:54;;;;;;;;;6.67;5.00;;;;;18.79;41.08;101240.94;5054564;28;46415;-68
2022/06/03 01:53:52;;;;;;;;;6.00;4.67;;;;;18.76;41.00;101233.09;5041799;28;45313;-68
2022/06/03 01:56:36;;;;;;;;;4.33;4.33;;;;;18.76;41.61;101230.34;5043183;28;45383;-68
2022/06/03 01:59:10;;;;;;;;;6.00;4.67;;;;;18.67;41.52;101224.94;5038175;28;45583;-68
2022/06/03 02:02:00;;;;;;;;;4.00;4.00;;;;;18.64;41.18;101222.53;5043922;28;46628;-68
2022/06/03 02:04:42;;;;;;;;;4.00;4.00;;;;;18.61;41.44;101217.44;5039397;28;45921;-69
2022/06/03 02:07:55;;;;;;;;;5.00;5.00;;;;;18.62;41.42;101216.41;5043809;28;45379;-68
2022/06/03 02:10:39;;;;;;;;;7.00;5.00;;;;;18.58;41.96;101211.44;5054701;28;45494;-67
2022/06/03 02:13:36;;;;;;;;;5.67;5.67;;;;;18.51;42.90;101210.44;5042465;28;46053;-67
2022/06/03 02:16:12;;;;;;;;;6.00;6.00;;;;;18.35;42.80;101205.97;5041221;28;45434;-67
2022/06/03 02:19:23;;;;;;;;;7.00;6.67;;;;;18.28;43.33;101199.53;5040462;28;45226;-67
2022/06/03 02:22:07;;;;;;;;;6.00;6.00;;;;;18.24;43.63;101200.94;5041131;28;45310;-68
2022/06/03 02:25:07;;;;;;;;;6.33;6.33;;;;;18.18;44.02;101198.94;5052227;28;45530;-68
2022/06/03 02:27:54;;;;;;;;;5.67;5.67;;;;;18.15;44.18;101193.81;5058625;28;45577;-68
2022/06/03 02:30:41;;;;;;;;;6.00;6.00;;;;;18.11;44.15;101182.34;5034351;28;45737;-68
2022/06/03 02:33:41;;;;;;;;;8.00;5.00;;;;;18.12;43.80;101183.16;5058154;28;45460;-68
2022/06/03 02:36:21;;;;;;;;;6.33;5.00;;;;;18.13;43.87;101179.38;5035700;28;48055;-68
2022/06/03 02:38:58;;;;;;;;;5.00;5.00;;;;;18.08;43.52;101184.59;5039386;28;45579;-68
2022/06/03 02:42:03;;;;;;;;;5.00;4.00;;;;;18.10;43.43;101174.28;5042349;28;45455;-68
2022/06/03 02:45:03;;;;;;;;;4.00;4.00;;;;;18.10;43.63;101179.78;5041246;28;45460;-68
2022/06/03 02:47:47;;;;;;;;;6.33;5.33;;;;;18.06;43.98;101179.28;5041839;28;45490;-68
2022/06/03 02:50:30;;;;;;;;;7.33;5.67;;;;;18.03;44.62;101168.69;5037375;28;45435;-68
2022/06/03 02:53:10;;;;;;;;;6.00;4.33;;;;;18.02;43.86;101166.09;5058136;28;45370;-68
2022/06/03 02:55:58;;;;;;;;;4.00;4.00;;;;;17.96;44.10;101164.09;5037071;28;45669;-68
2022/06/03 02:58:49;;;;;;;;;7.00;7.00;;;;;18.00;43.42;101165.44;5035743;28;46159;-68
2022/06/03 03:01:35;;;;;;;;;7.00;5.33;;;;;17.94;44.67;101160.69;5042455;28;45465;-68
2022/06/03 03:04:18;;;;;;;;;5.67;5.67;;;;;17.83;44.80;101168.31;5056411;28;45353;-68
2022/06/03 03:07:16;;;;;;;;;6.00;5.33;;;;;17.83;44.82;101168.31;5058553;28;45575;-68
2022/06/03 03:10:15;;;;;;;;;7.33;6.00;;;;;17.81;44.46;101158.56;5038061;28;46112;-68
2022/06/03 03:13:10;;;;;;;;;7.67;6.67;;;;;17.75;44.47;101148.31;5042632;28;45306;-68
2022/06/03 03:16:01;;;;;;;;;5.00;5.00;;;;;17.79;44.58;101160.63;5052089;28;45344;-68
2022/06/03 03:19:06;;;;;;;;;4.67;4.67;;;;;17.85;45.09;101162.66;5039886;28;45453;-68
2022/06/03 03:21:41;;;;;;;;;6.00;6.00;;;;;17.81;44.63;101148.44;5042700;28;45446;-68
2022/06/03 03:24:21;;;;;;;;;9.33;7.00;;;;;17.87;44.40;101147.69;5040272;28;45414;-68
2022/06/03 03:27:00;;;;;;;;;7.33;6.67;;;;;17.84;45.08;101152.69;5042640;28;45284;-68
2022/06/03 03:29:56;;;;;;;;;8.33;6.33;;;;;17.79;44.90;101167.00;5039890;28;45351;-68
2022/06/03 03:32:34;;;;;;;;;8.00;6.67;;;;;17.86;44.94;101178.97;5032144;28;46520;-68
2022/06/03 03:35:22;;;;;;;;;6.33;6.33;;;;;17.84;44.48;101175.53;5033165;28;45494;-68
2022/06/03 03:38:25;;;;;;;;;8.00;6.33;;;;;17.88;45.41;101165.88;5042714;28;45311;-68
2022/06/03 03:40:53;;;;;;;;;8.00;6.33;;;;;17.89;44.53;101167.59;5038144;28;45446;-68
2022/06/03 03:43:51;;;;;;;;;5.67;5.67;;;;;17.79;45.44;101171.63;5055507;28;46708;-68
2022/06/03 03:46:38;;;;;;;;;8.33;8.33;;;;;17.76;44.44;101156.34;5041016;28;45341;-68
2022/06/03 03:49:22;;;;;;;;;8.00;6.33;;;;;17.75;45.24;101146.41;5035884;28;45393;-68
2022/06/03 03:52:06;;;;;;;;;8.67;8.67;;;;;17.80;44.94;101152.22;5041004;28;45420;-68
2022/06/03 03:54:57;;;;;;;;;6.67;6.67;;;;;17.75;45.27;101140.91;5035447;28;46573;-69
2022/06/03 03:57:43;;;;;;;;;16.25;14.00;;;;;17.76;45.12;101142.63;5041273;28;45356;-68
2022/06/03 04:00:29;;;;;;;;;8.00;7.00;;;;;17.87;44.49;101157.81;5054646;28;45248;-68
2022/06/03 04:03:28;;;;;;;;;9.67;9.00;;;;;17.79;44.73;101166.13;5046222;28;45353;-68
2022/06/03 04:06:10;;;;;;;;;11.00;8.33;;;;;17.80;45.79;101167.84;5045429;28;45381;-68
2022/06/03 04:08:38;;;;;;;;;9.67;9.00;;;;;17.85;44.68;101173.63;5058661;28;45441;-67
2022/06/03 04:11:07;;;;;;;;;8.00;8.00;;;;;17.90;44.90;101180.28;5041335;28;45343;-68
2022/06/03 04:13:49;;;;;;;;;8.33;8.33;;;;;17.93;44.04;101169.97;5043617;28;45692;-69
2022/06/03 04:16:24;;;;;;;;;7.00;7.00;;;;;17.96;44.82;101183.34;5057357;28;45558;-68
2022/06/03 04:19:17;;;;;;;;;7.67;7.33;;;;;17.91;44.54;101186.63;5043221;28;45512;-68
2022/06/03 04:21:56;;;;;;;;;9.00;8.00;;;;;18.00;44.16;101168.19;5044241;28;45516;-68
2022/06/03 04:24:35;;;;;;;;;7.00;7.00;;;;;18.06;43.66;101165.53;5041218;28;45354;-68
2022/06/03 04:27:31;;;;;;;;;11.00;8.33;;;;;18.12;44.00;101170.28;5045028;28;46288;-68
2022/06/03 04:30:05;;;;;;;;;4.33;4.33;;;;;18.16;43.77;101160.63;5018423;28;45501;-68
2022/06/03 04:32:53;;;;;;;;;8.67;7.33;;;;;18.14;43.93;101148.09;5045345;28;45290;-68
2022/06/03 04:35:55;;;;;;;;;7.67;7.67;;;;;18.17;44.41;101153.22;5038818;28;45307;-68
2022/06/03 04:38:59;;;;;;;;;14.33;6.67;;;;;18.25;44.20;101153.16;5058098;28;47056;-68
2022/06/03 04:41:54;;;;;;;;;9.67;9.00;;;;;18.42;43.60;101168.41;5044569;28;45224;-68
2022/06/03 04:44:41;;;;;;;;;7.67;7.00;;;;;18.46;43.45;101169.75;5038534;28;45326;-68
2022/06/03 04:47:44;;;;;;;;;6.67;5.67;;;;;18.44;43.77;101176.47;5042258;28;45609;-68
2022/06/03 04:50:58;;;;;;;;;5.67;5.67;;;;;18.58;44.63;101173.75;5036548;28;46204;-67
2022/06/03 04:53:41;;;;;;;;;8.33;8.33;;;;;18.67;43.25;101172.63;5055407;28;45430;-67
2022/06/03 04:56:40;;;;;;;;;11.33;8.67;;;;;18.76;43.13;101167.03;5041033;28;45409;-68
2022/06/03 04:59:43;;;;;;;;;7.00;7.00;;;;;18.81;42.89;101172.81;5039664;28;45440;-69
2022/06/03 05:02:36;;;;;;;;;8.00;7.00;;;;;18.83;42.79;101173.47;5042084;28;46646;-68
2022/06/03 05:05:23;;;;;;;;;7.33;5.67;;;;;18.78;43.06;101181.44;5040700;28;45315;-69
2022/06/03 05:08:06;;;;;;;;;10.00;10.00;;;;;18.76;43.13;101175.28;5054954;28;45271;-68
2022/06/03 05:10:31;;;;;;;;;9.00;9.00;;;;;18.81;43.00;101168.16;5041313;28;45424;-68
2022/06/03 05:13:06;;;;;;;;;5.67;5.00;;;;;18.96;43.10;101170.88;5044334;28;45243;-68
2022/06/03 05:15:53;;;;;;;;;7.67;6.00;;;;;18.94;42.95;101162.81;5039235;28;45911;-67
2022/06/03 05:18:24;;;;;;;;;9.33;6.33;;;;;18.99;43.22;101154.00;5042181;28;45607;-68
2022/06/03 05:21:14;;;;;;;;;7.00;6.00;;;;;19.05;42.98;101148.56;5037362;28;45486;-67
2022/06/03 05:24:01;;;;;;;;;7.33;7.00;;;;;19.12;42.48;101145.03;5056576;28;46878;-69
2022/06/03 05:26:45;;;;;;;;;10.00;10.00;;;;;19.12;42.32;101140.38;5059054;28;45627;-67
2022/06/03 05:29:20;;;;;;;;;9.33;7.00;;;;;19.17;42.95;101148.88;5038446;28;45348;-67
2022/06/03 05:32:18;;;;;;;;;9.00;6.33;;;;;19.24;42.54;101152.56;5043702;28;45295;-68
2022/06/03 05:35:05;;;;;;;;;8.67;7.33;;;;;19.33;42.30;101162.44;5037042;28;46391;-68
2022/06/03 05:37:44;;;;;;;;;8.67;7.00;;;;;19.32;42.23;101160.72;5043440;28;45275;-67
2022/06/03 05:40:34;;;;;;;;;5.67;5.33;;;;;19.34;42.38;101164.13;5040034;28;45507;-67
2022/06/03 05:43:33;;;;;;;;;9.00;9.00;;;;;19.40;43.00;101162.50;5043408;28;45553;-68
2022/06/03 05:46:06;;;;;;;;;7.33;7.33;;;;;19.41;43.09;101164.22;5039520;28;45489;-67
2022/06/03 05:48:37;;;;;;;;;6.00;6.00;;;;;19.45;42.23;101162.75;5039877;28;45523;-68
2022/06/03 05:51:40;;;;;;;;;9.33;8.00;;;;;19.59;42.33;101158.25;5039682;28;45481;-68
2022/06/03 05:54:35;;;;;;;;;6.67;6.67;;;;;19.74;41.77;101150.75;5065427;28;45535;-68
2022/06/03 05:57:10;;;;;;;;;8.67;8.33;;;;;19.77;42.12;101153.13;5042845;28;46296;-68
2022/06/03 05:59:40;;;;;;;;;10.00;9.00;;;;;19.72;42.66;101144.63;5055327;28;45404;-68
2022/06/03 06:02:38;;;;;;;;;10.33;7.33;;;;;19.80;42.48;101153.56;5043186;28;45228;-68
2022/06/03 06:05:32;;;;;;;;;9.00;9.00;;;;;19.70;42.97;101147.56;5072299;28;45386;-68
2022/06/03 06:08:06;;;;;;;;;9.00;9.00;;;;;19.76;42.90;101145.91;5034626;28;45755;-68
2022/06/03 06:11:00;;;;;;;;;14.67;13.00;;;;;19.54;43.49;101149.72;5040593;28;45378;-69
2022/06/03 06:13:53;;;;;;;;;10.33;8.67;;;;;19.51;44.15;101150.13;5040734;28;45294;-69
2022/06/03 06:16:31;;;;;;;;;9.67;8.33;;;;;19.64;43.41;101164.03;5050892;28;45577;-69
2022/06/03 06:19:02;;;;;;;;;8.00;7.00;;;;;19.79;43.73;101162.94;5040010;28;46708;-68
2022/06/03 06:21:57;;;;;;;;;11.00;9.67;;;;;19.89;43.01;101159.81;5033970;28;45301;-68
2022/06/03 06:24:35;;;;;;;;;11.33;9.00;;;;;20.12;42.59;101159.56;5037065;28;45302;-67
2022/06/03 06:27:31;;;;;;;;;8.00;8.00;;;;;20.28;42.59;101145.47;5039995;28;45397;-68
2022/06/03 06:30:36;;;;;;;;;8.00;8.00;;;;;20.40;42.05;101152.16;5035142;28;46345;-68
2022/06/03 06:33:36;;;;;;;;;7.00;7.00;;;;;20.55;41.76;101149.28;5032301;28;45351;-68
2022/06/03 06:36:26;;;;;;;;;8.67;7.67;;;;;20.56;41.73;101143.56;5037400;28;45524;-69
2022/06/03 06:39:01;;;;;;;;;11.00;9.00;;;;;20.56;41.61;101134.41;5039448;28;45318;-68
2022/06/03 06:41:39;;;;;;;;;10.00;9.67;;;;;20.49;42.33;101131.63;5039803;28;45332;-68
2022/06/03 06:44:11;;;;;;;;;8.67;8.67;;;;;20.51;42.25;101137.81;5037180;28;45361;-69
2022/06/03 06:46:59;;;;;;;;;9.67;9.67;;;;;20.55;42.58;101141.00;5041333;28;45478;-68
2022/06/03 06:49:32;;;;;;;;;10.00;10.00;;;;;20.32;42.96;101140.38;5037381;28;45374;-68
2022/06/03 06:52:21;;;;;;;;;11.00;10.33;;;;;20.43;42.72;101126.91;5057303;28;46619;-68
2022/06/03 06:55:09;;;;;;;;;9.33;8.67;;;;;20.20;43.72;101138.19;5069393;28;45252;-68
2022/06/03 06:57:43;;;;;;;;;10.67;9.67;;;;;20.23;43.95;101127.81;5037240;28;45329;-68
2022/06/03 07:00:29;;;;;;;;;5.67;5.67;;;;;20.32;43.15;101130.19;5037903;28;45377;-69
2022/06/03 07:03:15;;;;;;;;;9.00;9.00;;;;;20.51;43.33;101120.38;5041904;28;45475;-68
2022/06/03 07:06:21;;;;;;;;;9.33;9.00;;;;;20.64;42.64;101120.44;5041065;28;45485;-69
2022/06/03 07:08:54;;;;;;;;;8.00;8.00;;;;;20.83;42.80;101125.19;5034057;28;45548;-68
2022/06/03 07:11:27;;;;;;;;;10.33;8.00;;;;;20.63;43.24;101127.03;5041647;28;45501;-69
2022/06/03 07:13:57;;;;;;;;;13.67;11.67;;;;;20.55;42.82;101124.44;5054312;28;46739;-68
2022/06/03 07:22:32;;;;;;;;;9.00;9.00;;;;;20.65;43.36;101124.06;5040788;28;45307;-67
2022/06/03 07:25:12;;;;;;;;;10.33;8.67;;;;;20.96;42.84;101128.03;5043015;28;45690;-67
2022/06/03 07:27:47;;;;;;;;;6.75;6.75;;;;;21.32;42.06;101116.69;5073354;28;45357;-68
2022/06/03 07:30:20;;;;;;;;;11.33;8.33;;;;;21.48;41.27;101112.63;5036023;28;45452;-68
2022/06/03 07:32:52;;;;;;;;;8.33;7.67;;;;;21.60;41.80;101119.25;5058026;28;45358;-67
2022/06/03 07:35:40;;;;;;;;;8.67;7.00;;;;;21.63;41.34;101123.50;5050530;28;48181;-68
2022/06/03 07:38:20;;;;;;;;;7.33;7.33;;;;;21.63;41.61;101126.25;5055951;28;45368;-70
2022/06/03 07:41:11;;;;;;;;;13.00;10.00;;;;;21.66;41.46;101126.72;5039114;28;45396;-68
2022/06/03 07:43:49;;;;;;;;;10.67;9.00;;;;;21.83;41.39;101134.59;5039925;28;45346;-69
2022/06/03 07:46:22;;;;;;;;;9.00;9.00;;;;;21.87;41.58;101130.31;5041420;28;45552;-67
2022/06/03 07:48:48;;;;;;;;;8.67;8.67;;;;;22.02;41.30;101133.75;5038352;28;45709;-69
2022/06/03 07:51:31;;;;;;;;;7.33;7.33;;;;;22.03;41.38;101129.94;5041161;28;45368;-68
2022/06/03 07:54:05;;;;;;;;;11.00;10.00;;;;;22.09;41.00;101152.06;5036654;28;45468;-68
2022/06/03 07:56:34;;;;;;;;;10.67;9.67;;;;;21.77;41.78;101154.81;5039878;28;46662;-68
2022/06/03 07:59:03;;;;;;;;;8.00;8.00;;;;;21.54;42.74;101157.97;5037097;28;45414;-68
2022/06/03 08:01:33;;;;;;;;;10.67;8.67;;;;;21.66;43.12;101157.13;5040339;28;45266;-68
2022/06/03 08:03:58;;;;;;;;;12.67;11.00;;;;;21.86;42.13;101150.75;5038041;28;45473;-68
2022/06/03 08:12:05;;;;;;;;;8.67;6.67;;;;;21.84;42.95;101148.22;5040292;28;45429;-68
2022/06/03 08:14:31;;;;;;;;;7.33;7.33;;;;;22.15;41.73;101144.81;5038406;28;45562;-68
2022/06/03 08:16:56;;;;;;;;;11.67;10.33;;;;;22.38;41.79;101141.59;5039363;28;46812;-67
2022/06/03 08:19:27;;;;;;;;;11.33;8.33;;;;;22.49;40.86;101141.78;5051998;28;45290;-67
2022/06/03 08:21:57;;;;;;;;;10.33;8.33;;;;;22.40;42.06;101142.22;5040963;28;45386;-67
2022/06/03 08:24:30;;;;;;;;;10.50;10.25;;;;;22.08;43.01;101135.66;5037217;28;45402;-67
2022/06/03 08:27:01;;;;;;;;;9.33;9.00;;;;;22.16;42.38;101146.50;5037786;28;46086;-67
2022/06/03 08:29:34;;;;;;;;;14.50;14.50;;;;;22.37;42.10;101146.25;5035812;28;46002;-68
2022/06/03 08:32:04;;;;;;;;;10.33;10.33;;;;;22.25;42.35;101139.69;5040607;28;45365;-68
2022/06/03 08:34:42;;;;;;;;;14.67;11.00;;;;;22.30;42.74;101139.88;5036384;28;45350;-67
2022/06/03 08:37:13;;;;;;;;;9.00;9.00;;;;;22.45;41.87;101134.09;5037595;28;46052;-67
2022/06/03 08:39:39;;;;;;;;;12.00;10.00;;;;;22.32;43.02;101123.91;5037736;28;45453;-67
2022/06/03 08:42:16;;;;;;;;;10.67;10.00;;;;;22.25;42.72;101120.31;5041721;28;45388;-68
2022/06/03 08:45:07;;;;;;;;;9.67;9.00;;;;;22.77;41.88;101121.25;5033833;28;45666;-68
2022/06/03 08:47:41;;;;;;;;;13.67;12.33;;;;;23.10;42.00;101123.88;5043751;28;46403;-68
2022/06/03 08:50:22;;;;;;;;;10.33;9.00;;;;;23.31;41.66;101123.53;5034326;28;45527;-70
2022/06/03 08:53:00;;;;;;;;;9.00;9.00;;;;;23.46;40.93;101120.44;5043390;28;45516;-68
2022/06/03 08:55:51;;;;;;;;;8.67;8.67;;;;;23.38;40.89;101117.97;5038271;28;45559;-68
2022/06/03 08:58:21;;;;;;;;;13.33;13.00;;;;;23.33;41.65;101117.75;5028542;28;47038;-68
2022/06/03 09:01:22;;;;;;;;;12.00;10.33;;;;;23.59;40.98;101114.84;5040647;28;45552;-68
2022/06/03 09:04:13;;;;;;;;;9.33;9.33;;;;;23.77;40.52;101114.91;5033879;28;45383;-69
2022/06/03 09:06:56;;;;;;;;;12.33;10.33;;;;;23.25;41.85;101118.88;5059699;28;45492;-68
2022/06/03 09:09:43;;;;;;;;;9.00;9.00;;;;;23.62;41.14;101115.25;5041275;28;46455;-68
2022/06/03 09:12:28;;;;;;;;;10.00;8.33;;;;;24.05;40.52;101109.75;5040167;28;45286;-68
2022/06/03 09:14:59;;;;;;;;;13.00;13.00;;;;;24.06;40.34;101105.91;5041040;28;45408;-68
2022/06/03 09:17:40;;;;;;;;;11.00;10.33;;;;;24.37;40.10;101098.56;5042445;28;45276;-68
2022/06/03 09:20:17;;;;;;;;;10.33;10.00;;;;;24.61;40.22;101097.66;5037531;28;45564;-68
2022/06/03 09:22:44;;;;;;;;;11.33;9.33;;;;;24.74;39.62;101094.72;5058956;28;45422;-68
2022/06/03 09:25:14;;;;;;;;;6.00;6.00;;;;;24.41;40.56;101102.56;5040663;28;45337;-68
2022/06/03 09:27:41;;;;;;;;;18.50;16.00;;;;;24.39;40.77;101088.94;5044063;28;45544;-68
2022/06/03 09:30:09;;;;;;;;;13.33;13.00;;;;;24.45;40.76;101092.72;5037105;28;47758;-69
2022/06/03 09:32:45;;;;;;;;;10.67;10.67;;;;;24.91;40.14;101097.75;5041453;28;45304;-68
2022/06/03 09:35:16;;;;;;;;;10.33;10.33;;;;;25.10;40.21;101102.16;5037142;28;45160;-68
2022/06/03 09:37:46;;;;;;;;;14.00;9.67;;;;;25.39;39.40;101099.59;5059198;28;45486;-68
2022/06/03 09:40:21;;;;;;;;;17.00;10.67;;;;;25.68;39.06;101109.03;5035476;28;46995;-67
2022/06/03 09:42:55;;;;;;;;;11.67;11.67;;;;;25.96;38.73;101106.41;5058168;28;45384;-69
2022/06/03 09:45:23;;;;;;;;;8.67;8.67;;;;;26.18;38.09;101107.50;5037029;28;45305;-69
2022/06/03 09:47:50;;;;;;;;;12.33;10.00;;;;;26.32;37.71;101116.47;5041835;28;45500;-69
2022/06/03 09:50:18;;;;;;;;;14.00;12.33;;;;;26.12;38.61;101108.47;5051848;28;47229;-68
2022/06/03 09:52:44;;;;;;;;;16.50;13.00;;;;;26.07;38.36;101108.34;5043563;28;45478;-68
2022/06/03 09:55:24;;;;;;;;;13.33;13.33;;;;;26.51;37.96;101120.00;5040758;28;45258;-68
2022/06/03 09:57:49;;;;;;;;;10.00;10.00;;;;;26.69;37.69;101123.47;5040910;28;45538;-69
2022/06/03 10:00:21;;;;;;;;;11.00;11.00;;;;;26.84;37.64;101131.31;5038327;28;46698;-69
2022/06/03 10:02:47;;;;;;;;;10.00;10.00;;;;;26.94;37.38;101139.94;5042530;28;45431;-68
2022/06/03 10:05:16;;;;;;;;;12.33;12.33;;;;;27.02;37.35;101150.69;5038768;28;45401;-69
2022/06/03 10:07:43;;;;;;;;;10.33;9.00;;;;;27.09;37.35;101140.25;5058679;28;45537;-69
2022/06/03 10:13:05;;;;;;;;;12.67;12.00;;;;;27.71;36.53;101139.47;5037574;28;45243;-69
2022/06/03 10:15:39;;;;;;;;;11.33;11.33;;;;;27.83;36.14;101140.28;5037575;28;45323;-69
2022/06/03 10:18:23;;;;;;;;;10.33;9.00;;;;;27.65;35.56;101127.38;5042229;28;45437;-69
2022/06/03 10:20:51;;;;;;;;;11.67;11.67;;;;;27.31;36.19;101136.75;5035637;28;46650;-68
2022/06/03 10:23:24;;;;;;;;;11.33;11.33;;;;;27.14;36.66;101125.53;5042845;28;45543;-68
2022/06/03 10:25:51;;;;;;;;;11.33;10.33;;;;;27.15;37.42;101120.81;5037523;28;45389;-68
2022/06/03 10:28:17;;;;;;;;;13.33;12.33;;;;;27.15;37.47;101126.38;5041233;28;45550;-67
2022/06/03 10:30:44;;;;;;;;;13.33;12.33;;;;;27.07;36.93;101130.41;5037452;28;46028;-69
2022/06/03 10:33:21;;;;;;;;;13.00;13.00;;;;;27.21;36.76;101111.44;5057739;28;45361;-69
2022/06/03 10:35:49;;;;;;;;;11.00;10.00;;;;;27.37;37.18;101113.44;5039976;28;45553;-67
2022/06/03 10:38:17;;;;;;;;;10.00;10.00;;;;;27.45;36.66;101104.66;5041624;28;45331;-67
2022/06/03 10:40:47;;;;;;;;;17.00;14.67;;;;;27.46;36.81;101107.19;5037614;28;46219;-68
2022/06/03 10:43:22;;;;;;;;;11.00;11.00;;;;;27.23;37.54;101117.63;5041372;28;45375;-67
2022/06/03 10:45:47;;;;;;;;;15.33;13.00;;;;;27.34;37.79;101114.78;5038275;28;45448;-67
2022/06/03 10:48:21;;;;;;;;;15.00;12.00;;;;;27.64;36.86;101120.09;5042366;28;45317;-67
2022/06/03 10:50:47;;;;;;;;;14.00;12.67;;;;;27.73;36.63;101113.00;5053587;28;45355;-68
2022/06/03 11:01:47;;;;;;;;;13.33;12.00;;;;;28.49;36.41;101108.63;5037578;28;45778;-68
2022/06/03 11:04:39;;;;;;;;;14.33;13.00;;;;;28.56;36.70;101108.47;5037284;28;45269;-68
2022/06/03 11:07:27;;;;;;;;;13.00;13.00;;;;;28.76;36.10;101102.34;5040659;28;45306;-69
2022/06/03 11:09:57;;;;;;;;;15.00;13.33;;;;;28.81;36.32;101099.59;5038763;28;45569;-68
2022/06/03 11:12:25;;;;;;;;;13.25;12.75;;;;;28.88;36.34;101098.28;5041780;28;45392;-67
2022/06/03 11:14:52;;;;;;;;;10.00;10.00;;;;;29.00;35.88;101112.16;5040422;28;45279;-68
2022/06/03 11:17:18;;;;;;;;;12.00;12.00;;;;;28.95;35.84;101114.88;5042009;28;45350;-68
2022/06/03 11:19:48;;;;;;;;;12.25;11.25;;;;;28.97;35.85;101121.91;5037264;28;45274;-68
2022/06/03 11:22:13;;;;;;;;;12.00;12.00;;;;;28.95;35.80;101120.47;5041470;28;46036;-68
2022/06/03 11:24:40;;;;;;;;;16.50;16.00;;;;;29.10;35.68;101131.84;5036758;28;45455;-68
2022/06/03 11:27:11;;;;;;;;;13.00;13.00;;;;;28.98;35.60;101128.34;5042403;28;45389;-68
2022/06/03 11:29:40;;;;;;;;;14.75;13.25;;;;;28.87;35.77;101138.53;5035841;28;45422;-69
2022/06/03 11:32:10;;;;;;;;;15.75;15.25;;;;;28.60;36.37;101141.22;5041899;28;45373;-68
2022/06/03 11:34:50;;;;;;;;;13.00;13.00;;;;;28.41;36.75;101148.22;5035257;28;45249;-68
2022/06/03 11:37:22;;;;;;;;;16.50;15.00;;;;;28.16;37.15;101145.88;5041967;28;45409;-68
2022/06/03 11:40:00;;;;;;;;;18.25;11.75;;;;;27.81;38.17;101148.91;5035543;28;45368;-68
2022/06/03 11:42:33;;;;;;;;;16.25;13.25;;;;;27.87;38.24;101147.03;5042073;28;45456;-68
2022/06/03 11:45:11;;;;;;;;;16.67;14.33;;;;;27.77;39.45;101136.53;5036083;28;45484;-68
2022/06/03 11:48:18;;;;;;;;;10.33;10.33;;;;;27.78;39.38;101145.75;5041285;28;45446;-68
2022/06/03 11:50:44;;;;;;;;;13.67;8.00;;;;;27.49;40.00;101142.13;5031259;28;45412;-68
2022/06/03 11:53:09;;;;;;;;;12.00;11.67;;;;;27.44;40.87;101148.47;5056180;28;47290;-68
2022/06/03 11:55:38;;;;;;;;;13.00;13.00;;;;;27.09;41.21;101139.41;5034485;28;45365;-69
2022/06/03 11:58:09;;;;;;;;;16.75;13.75;;;;;26.99;41.18;101148.38;5041348;28;45383;-68
2022/06/03 12:00:47;;;;;;;;;13.67;11.67;;;;;26.72;42.16;101144.44;5037408;28;45398;-68
2022/06/03 12:03:37;;;;;;;;;13.67;13.67;;;;;26.80;42.24;101146.00;5039969;28;45403;-68
2022/06/03 12:06:11;;;;;;;;;12.33;11.00;;;;;26.82;42.26;101150.22;5040053;28;45237;-68
2022/06/03 12:08:49;;;;;;;;;13.00;12.67;;;;;26.71;42.45;101143.59;5032425;28;45454;-69
2022/06/03 12:14:27;;;;;;;;;10.67;10.67;;;;;26.83;41.56;101143.53;5039032;28;45552;-69
2022/06/03 12:17:00;;;;;;;;;10.67;8.67;;;;;26.70;42.62;101152.19;5056377;28;45413;-67
2022/06/03 12:19:47;;;;;;;;;9.00;8.33;;;;;26.52;42.78;101142.00;5035529;28;45453;-68
2022/06/03 12:22:17;;;;;;;;;11.00;11.00;;;;;26.50;43.29;101147.00;5045545;28;45452;-69
2022/06/03 12:24:45;;;;;;;;;9.33;9.33;;;;;26.31;43.40;101139.84;5038760;28;45492;-69
2022/06/03 12:27:17;;;;;;;;;9.00;9.00;;;;;26.30;43.47;101152.09;5043099;28;45487;-68
2022/06/03 12:29:58;;;;;;;;;10.00;8.67;;;;;26.10;44.00;101141.28;5051301;28;45565;-68
2022/06/03 12:32:29;;;;;;;;;13.00;11.33;;;;;25.98;45.10;101148.78;5045417;28;45417;-68
2022/06/03 12:35:44;;;;;;;;;13.00;8.33;;;;;25.90;46.32;101155.53;5041469;28;46199;-68
2022/06/03 12:38:22;;;;;;;;;6.67;5.67;;;;;25.52;50.35;101153.09;5046745;28;45674;-69
2022/06/03 12:40:52;;;;;;;;;9.00;7.00;;;;;25.42;51.32;101163.97;5039998;28;45387;-68
2022/06/03 12:43:44;;;;;;;;;8.00;8.00;;;;;25.22;52.07;101160.59;5043304;28;45327;-67
2022/06/03 12:46:38;;;;;;;;;8.00;7.00;;;;;24.94;52.44;101160.34;5035237;28;47283;-67
2022/06/03 12:49:15;;;;;;;;;9.33;9.00;;;;;24.61;54.09;101152.38;5032025;28;45505;-67
2022/06/03 12:52:07;;;;;;;;;9.33;9.33;;;;;24.37;55.51;101162.44;5043056;28;45517;-67